Aviation Digital Data Service (ADDS)

Output produced by TAFs form (0552 UTC 25 February 2018)
found at http://aviationweather.gov/adds/tafs/
 
METAR text: ZBTJ 250530Z 23003MPS 180V280 CAVOK 05/M12 Q1024 NOSIG
Conditions at: ZBTJ (TIANJIN/ZHANGGUI, CN) observed 0530 UTC 25 February 2018
Temperature: 5.0°C (41°F)
Dewpoint: -12.0°C (10°F) [RH = 28%]
Pressure (altimeter): 30.24 inches Hg (1024.0 mb)
Winds: from the SW (230 degrees) at 7 MPH (6 knots; 3.1 m/s)
Visibility: 6 or more miles (10+ km)
Ceiling: ceiling and visibility are OK
Clouds: unknown
Weather: no significant weather observed at this time

Forecast for: ZBTJ (TIANJIN/ZHANGGUI, CN)
Text: TAF ZBTJ 250253Z 2506/2606 21004MPS 5000 HZ NSC TX05/2507Z TNM05/22Z
Forecast period: 0600 UTC 25 February 2018 to 0600 UTC 26 February 2018
Forecast type: FROM: standard forecast or significant change
Winds: from the SSW (210 degrees) at 9 MPH (8 knots; 4.2 m/s)
Visibility: 3 miles (5 km)
Clouds: not forecast
Temperature: minimum -5.0°C (23°F) expected at 2200 UTC
Weather: HZ  (haze)